createdAt,value
2022-09-12T00:01:29.560Z,4.50
2022-09-12T00:04:01.990Z,5.30
2022-09-12T00:06:35.549Z,4.20
2022-09-12T00:09:12.564Z,4.10
2022-09-12T00:11:45.289Z,4.40
2022-09-12T00:14:17.332Z,4.40
2022-09-12T00:16:45.498Z,5.70
2022-09-12T00:19:14.064Z,3.90
2022-09-12T00:21:42.782Z,3.40
2022-09-12T00:24:11.972Z,4.90
2022-09-12T00:26:40.637Z,4.80
2022-09-12T00:29:08.913Z,4.00
2022-09-12T00:31:37.026Z,3.80
2022-09-12T00:34:05.237Z,4.10
2022-09-12T00:36:33.414Z,4.50
2022-09-12T00:39:01.613Z,3.90
2022-09-12T00:41:37.817Z,3.90
2022-09-12T00:44:24.374Z,4.10
2022-09-12T00:47:04.472Z,3.70
2022-09-12T00:49:49.909Z,3.70
2022-09-12T00:52:43.892Z,3.30
2022-09-12T00:55:28.632Z,3.50
2022-09-12T00:58:05.943Z,4.00
2022-09-12T01:00:34.642Z,3.80
2022-09-12T01:03:10.724Z,3.90
2022-09-12T01:05:50.350Z,3.90
2022-09-12T01:08:18.808Z,3.40
2022-09-12T01:10:47.842Z,3.70
2022-09-12T01:13:16.396Z,3.80
2022-09-12T01:15:45.061Z,3.30
2022-09-12T01:18:37.721Z,3.80
2022-09-12T01:21:21.319Z,4.60
2022-09-12T01:24:34.326Z,3.50
2022-09-12T01:27:48.446Z,3.00
2022-09-12T01:30:30.638Z,4.30
2022-09-12T01:33:25.077Z,4.10
2022-09-12T01:36:34.801Z,3.40
2022-09-12T01:39:14.270Z,4.40
2022-09-12T01:42:10.372Z,4.10
2022-09-12T01:45:20.308Z,3.60
2022-09-12T01:47:58.913Z,3.80
2022-09-12T01:50:37.711Z,4.10
2022-09-12T01:53:16.754Z,3.90
2022-09-12T01:56:03.376Z,4.10
2022-09-12T01:59:00.221Z,4.30
2022-09-12T02:01:45.162Z,4.20
2022-09-12T02:04:34.144Z,3.70
2022-09-12T02:07:19.955Z,3.90
2022-09-12T02:10:14.784Z,5.20
2022-09-12T02:12:54.062Z,3.50
2022-09-12T02:15:30.450Z,3.80
2022-09-12T02:18:04.913Z,3.90
2022-09-12T02:20:48.994Z,3.50
2022-09-12T02:23:30.163Z,3.50
2022-09-12T02:26:11.324Z,4.60
2022-09-12T02:28:43.667Z,4.60
2022-09-12T02:31:27.623Z,3.40
2022-09-12T02:34:17.872Z,4.10
2022-09-12T02:37:15.648Z,3.60
2022-09-12T02:39:45.495Z,4.00
2022-09-12T02:42:14.143Z,3.90
2022-09-12T02:44:43.089Z,3.80
2022-09-12T02:47:23.300Z,3.90
2022-09-12T02:49:53.417Z,3.70
2022-09-12T02:52:21.836Z,3.80
2022-09-12T02:54:52.159Z,3.50
2022-09-12T02:57:23.222Z,4.10
2022-09-12T03:00:00.827Z,3.80
2022-09-12T03:02:41.316Z,4.00
2022-09-12T03:05:35.019Z,3.50
2022-09-12T03:09:00.979Z,3.50
2022-09-12T03:12:09.552Z,3.60
2022-09-12T03:15:01.876Z,3.70
2022-09-12T03:17:48.481Z,4.00
2022-09-12T03:20:30.689Z,4.70
2022-09-12T03:23:12.399Z,3.80
2022-09-12T03:25:50.406Z,3.20
2022-09-12T03:28:21.542Z,3.40
2022-09-12T03:30:55.252Z,4.00
2022-09-12T03:33:25.798Z,3.20
2022-09-12T03:35:55.785Z,3.30
2022-09-12T03:38:23.949Z,3.40
2022-09-12T03:40:54.865Z,3.20
2022-09-12T03:43:23.550Z,3.40
2022-09-12T03:45:55.892Z,4.50
2022-09-12T03:48:25.652Z,2.70
2022-09-12T03:50:53.917Z,3.40
2022-09-12T03:53:23.017Z,3.60
2022-09-12T03:55:51.102Z,3.40
2022-09-12T03:58:20.301Z,4.10
2022-09-12T04:00:49.221Z,3.30
2022-09-12T04:03:19.428Z,3.50
2022-09-12T04:05:47.898Z,3.00
2022-09-12T04:08:15.988Z,4.00
2022-09-12T04:10:44.118Z,3.40
2022-09-12T04:13:12.426Z,3.30
2022-09-12T04:15:40.593Z,3.80
2022-09-12T04:18:08.534Z,4.10
2022-09-12T04:20:37.044Z,3.50
2022-09-12T04:23:05.524Z,3.70
2022-09-12T04:25:34.032Z,3.70
2022-09-12T04:28:02.461Z,3.00
2022-09-12T04:30:30.469Z,3.50
2022-09-12T04:32:58.437Z,3.50
2022-09-12T04:35:27.737Z,3.00
2022-09-12T04:37:56.108Z,4.10
2022-09-12T04:40:24.181Z,3.90
2022-09-12T04:42:52.101Z,3.20
2022-09-12T04:45:20.366Z,3.40
2022-09-12T04:47:48.929Z,3.60
2022-09-12T04:50:17.698Z,4.30
2022-09-12T04:52:56.235Z,5.50
2022-09-12T04:55:25.727Z,3.90
2022-09-12T04:57:53.655Z,4.80
2022-09-12T05:00:22.066Z,4.60
2022-09-12T05:02:50.109Z,4.10
2022-09-12T05:05:18.477Z,4.00
2022-09-12T05:07:46.833Z,3.80
2022-09-12T05:10:14.931Z,4.40
2022-09-12T05:12:43.449Z,3.50
2022-09-12T05:15:11.866Z,3.80
2022-09-12T05:17:40.104Z,3.50
2022-09-12T05:20:09.630Z,3.70
2022-09-12T05:22:40.229Z,4.00
2022-09-12T05:25:09.849Z,3.50
2022-09-12T05:27:38.118Z,3.90
2022-09-12T05:30:08.254Z,4.10
2022-09-12T05:32:36.327Z,3.90
2022-09-12T05:35:05.213Z,4.50
2022-09-12T05:37:34.007Z,3.90
2022-09-12T05:40:07.662Z,3.80
2022-09-12T05:42:36.947Z,3.40
2022-09-12T05:45:06.073Z,2.90
2022-09-12T05:47:34.297Z,3.90
2022-09-12T05:50:02.355Z,3.60
2022-09-12T05:52:32.765Z,4.30
2022-09-12T05:55:00.745Z,4.00
2022-09-12T05:57:29.430Z,4.80
2022-09-12T05:59:57.420Z,4.00
2022-09-12T06:02:25.857Z,4.30
2022-09-12T06:04:54.266Z,4.60
2022-09-12T06:07:22.118Z,4.70
2022-09-12T06:09:50.298Z,3.70
2022-09-12T06:12:18.750Z,4.90
2022-09-12T06:14:46.851Z,4.30
2022-09-12T06:17:14.930Z,5.80
2022-09-12T06:19:42.890Z,4.00
2022-09-12T06:22:11.282Z,5.30
2022-09-12T06:24:40.877Z,4.10
2022-09-12T06:27:09.075Z,4.50
2022-09-12T06:29:37.721Z,4.60
2022-09-12T06:32:07.367Z,4.40
2022-09-12T06:34:37.064Z,4.60
2022-09-12T06:37:05.238Z,5.80
2022-09-12T06:39:33.403Z,4.10
2022-09-12T06:42:01.376Z,4.20
2022-09-12T06:44:35.437Z,4.70
2022-09-12T06:47:03.697Z,3.60
2022-09-12T06:49:31.734Z,6.00
2022-09-12T06:51:59.725Z,5.00
2022-09-12T06:54:27.940Z,4.50
2022-09-12T06:56:56.050Z,4.30
2022-09-12T06:59:25.234Z,4.50
2022-09-12T07:01:53.193Z,4.10
2022-09-12T07:04:21.191Z,4.30
2022-09-12T07:06:49.158Z,4.40
2022-09-12T07:09:17.493Z,4.20
2022-09-12T07:11:46.898Z,4.40
2022-09-12T07:14:16.139Z,5.50
2022-09-12T07:16:44.741Z,4.60
2022-09-12T07:19:13.211Z,4.40
2022-09-12T07:21:42.304Z,3.80
2022-09-12T07:24:11.445Z,4.10
2022-09-12T07:26:42.596Z,4.20
2022-09-12T07:32:06.316Z,4.70
2022-09-12T07:34:35.904Z,5.00
2022-09-12T07:37:04.667Z,4.40
2022-09-12T07:39:32.892Z,4.40
2022-09-12T07:42:01.169Z,5.80
2022-09-12T07:44:31.358Z,4.70
2022-09-12T07:46:59.292Z,4.00
2022-09-12T07:49:27.342Z,4.10
2022-09-12T07:51:55.477Z,4.50
2022-09-12T07:54:24.122Z,4.30
2022-09-12T07:56:52.275Z,4.90
2022-09-12T07:59:41.427Z,5.10
2022-09-12T08:02:17.572Z,3.80
2022-09-12T08:04:48.651Z,4.10
2022-09-12T08:07:19.344Z,4.40
2022-09-12T08:09:47.668Z,4.60
2022-09-12T08:12:18.002Z,4.80
2022-09-12T08:14:46.675Z,4.10
2022-09-12T08:17:14.604Z,4.40
2022-09-12T08:19:43.008Z,4.00
2022-09-12T08:22:12.416Z,3.80
2022-09-12T08:24:40.695Z,3.10
2022-09-12T08:27:08.974Z,3.90
2022-09-12T08:29:36.939Z,4.00
2022-09-12T08:32:05.167Z,3.70
2022-09-12T08:34:33.284Z,4.40
2022-09-12T08:37:01.877Z,4.70
2022-09-12T08:39:30.249Z,4.00
2022-09-12T08:42:06.728Z,3.10
2022-09-12T08:45:09.357Z,4.10
2022-09-12T08:47:41.885Z,3.90
2022-09-12T08:50:09.862Z,4.90
2022-09-12T08:53:10.213Z,4.60
2022-09-12T08:55:58.931Z,3.80
2022-09-12T08:58:29.951Z,3.10
2022-09-12T09:01:41.333Z,3.30
2022-09-12T09:04:38.611Z,3.00
2022-09-12T09:07:55.225Z,4.10
2022-09-12T09:10:48.934Z,3.00
2022-09-12T09:13:54.041Z,3.30
2022-09-12T09:16:38.544Z,3.70
2022-09-12T09:19:17.642Z,4.40
2022-09-12T09:21:57.896Z,3.90
2022-09-12T09:24:38.056Z,2.80
2022-09-12T09:27:44.305Z,2.50
2022-09-12T09:30:17.924Z,3.20
2022-09-12T09:33:00.910Z,3.00
2022-09-12T09:35:54.804Z,3.10
2022-09-12T09:38:25.026Z,3.10
2022-09-12T09:41:16.127Z,2.80
2022-09-12T09:43:44.268Z,3.10
2022-09-12T09:46:14.248Z,3.00
2022-09-12T09:48:48.221Z,3.20
2022-09-12T09:51:27.346Z,2.40
2022-09-12T09:54:03.090Z,2.80
2022-09-12T09:56:42.632Z,3.70
2022-09-12T09:59:16.471Z,3.50
2022-09-12T10:01:46.479Z,3.30
2022-09-12T10:04:22.571Z,2.40
2022-09-12T10:06:54.913Z,2.50
2022-09-12T10:09:27.488Z,2.80
2022-09-12T10:11:57.496Z,2.90
2022-09-12T10:14:42.070Z,3.20
2022-09-12T10:17:34.511Z,2.80
2022-09-12T10:20:20.915Z,2.50
2022-09-12T10:22:49.910Z,2.20
2022-09-12T10:25:20.672Z,2.10
2022-09-12T10:28:02.971Z,2.50
2022-09-12T10:30:31.182Z,2.40
2022-09-12T10:33:11.737Z,2.50
2022-09-12T10:35:50.104Z,2.10
2022-09-12T10:38:28.223Z,3.30
2022-09-12T10:41:10.332Z,2.30
2022-09-12T10:43:41.605Z,2.80
2022-09-12T10:46:15.958Z,2.40
2022-09-12T10:48:49.923Z,2.80
2022-09-12T10:51:23.899Z,2.50
2022-09-12T10:53:57.805Z,2.70
2022-09-12T10:56:32.805Z,2.60
2022-09-12T10:59:54.060Z,3.20
2022-09-12T11:02:31.125Z,2.70
2022-09-12T11:04:59.109Z,2.10
2022-09-12T11:07:47.971Z,1.80
2022-09-12T11:10:36.734Z,1.90
2022-09-12T11:13:25.722Z,2.40
2022-09-12T11:15:56.259Z,2.20
2022-09-12T11:18:52.253Z,2.30
2022-09-12T11:21:51.043Z,2.90
2022-09-12T11:24:49.732Z,2.00
2022-09-12T11:27:51.083Z,2.70
2022-09-12T11:30:19.579Z,1.70
2022-09-12T11:32:56.234Z,1.80
2022-09-12T11:35:33.901Z,2.20
2022-09-12T11:38:20.078Z,2.20
2022-09-12T11:40:56.037Z,2.70
2022-09-12T11:43:54.570Z,3.00
2022-09-12T11:46:37.905Z,2.40
2022-09-12T11:49:12.526Z,2.20
2022-09-12T11:51:50.004Z,1.80
2022-09-12T11:54:40.112Z,2.00
2022-09-12T11:57:30.399Z,2.00
2022-09-12T12:00:22.256Z,1.90
2022-09-12T12:03:14.375Z,1.90
2022-09-12T12:05:59.946Z,2.50
2022-09-12T12:08:32.082Z,1.60
2022-09-12T12:11:03.675Z,2.70
2022-09-12T12:13:39.630Z,2.10
2022-09-12T12:16:25.325Z,1.80
2022-09-12T12:18:57.130Z,2.20
2022-09-12T12:21:40.990Z,1.90
2022-09-12T12:24:09.699Z,1.60
2022-09-12T12:27:01.812Z,2.00
2022-09-12T12:29:43.646Z,2.00
2022-09-12T12:32:15.996Z,1.80
2022-09-12T12:34:47.219Z,1.50
2022-09-12T12:37:20.038Z,1.40
2022-09-12T12:39:52.439Z,1.70
2022-09-12T12:42:36.961Z,1.60
2022-09-12T12:45:18.137Z,2.10
2022-09-12T12:47:53.166Z,1.70
2022-09-12T12:50:26.610Z,1.60
2022-09-12T12:53:27.846Z,2.60
2022-09-12T12:55:57.644Z,1.60
2022-09-12T12:58:36.562Z,1.90
2022-09-12T13:01:23.243Z,1.60
2022-09-12T13:04:04.695Z,2.20
2022-09-12T13:06:38.076Z,1.80
2022-09-12T13:09:11.242Z,1.90
2022-09-12T13:11:41.752Z,2.20
2022-09-12T13:14:35.555Z,2.00
2022-09-12T13:17:14.547Z,1.60
2022-09-12T13:19:43.348Z,1.90
2022-09-12T13:22:11.799Z,1.90
2022-09-12T13:24:49.390Z,1.70
2022-09-12T13:27:20.766Z,1.50
2022-09-12T13:29:49.591Z,3.30
2022-09-12T13:32:19.461Z,1.90
2022-09-12T13:35:08.050Z,1.90
2022-09-12T13:37:58.047Z,2.20
2022-09-12T13:41:00.327Z,2.50
2022-09-12T13:43:37.895Z,1.50
2022-09-12T13:46:09.834Z,2.00
2022-09-12T13:48:39.979Z,2.20
2022-09-12T13:51:08.261Z,1.90
2022-09-12T13:53:47.660Z,2.00
2022-09-12T13:56:18.739Z,2.40
2022-09-12T13:59:00.465Z,2.30
2022-09-12T14:01:42.480Z,3.00
2022-09-12T14:04:37.785Z,2.10
2022-09-12T14:07:23.931Z,1.90
2022-09-12T14:10:01.150Z,2.00
2022-09-12T14:12:40.308Z,2.60
2022-09-12T14:15:24.815Z,2.20
2022-09-12T14:18:01.348Z,2.40
2022-09-12T14:20:36.333Z,2.40
2022-09-12T14:23:27.652Z,2.00
2022-09-12T14:25:59.180Z,1.80
2022-09-12T14:28:30.417Z,1.90
2022-09-12T14:31:26.456Z,2.20
2022-09-12T14:34:20.228Z,2.40
2022-09-12T14:36:57.619Z,1.60
2022-09-12T14:39:45.820Z,1.60
2022-09-12T14:42:20.083Z,2.70
2022-09-12T14:45:04.340Z,1.90
2022-09-12T14:47:43.156Z,2.10
2022-09-12T14:50:26.598Z,2.50
2022-09-12T14:53:24.277Z,2.20
2022-09-12T14:56:10.544Z,2.70
2022-09-12T14:58:41.455Z,1.80
2022-09-12T15:01:09.346Z,2.00
2022-09-12T15:03:48.701Z,1.80
2022-09-12T15:06:23.767Z,1.60
2022-09-12T15:08:55.052Z,2.00
2022-09-12T15:11:23.465Z,1.80
2022-09-12T15:13:52.360Z,2.40
2022-09-12T15:16:20.789Z,2.80
2022-09-12T15:18:48.704Z,2.00
2022-09-12T15:21:21.631Z,2.10
2022-09-12T15:23:52.942Z,2.20
2022-09-12T15:26:27.714Z,2.00
2022-09-12T15:31:30.741Z,2.20
2022-09-12T15:34:02.655Z,2.00
2022-09-12T15:36:31.109Z,3.60
2022-09-12T15:38:59.077Z,1.60
2022-09-12T15:41:37.044Z,2.10
2022-09-12T15:44:13.278Z,1.50
2022-09-12T15:46:41.482Z,1.60
2022-09-12T15:49:09.369Z,1.70
2022-09-12T15:51:37.441Z,1.80
2022-09-12T15:54:05.533Z,1.70
2022-09-12T15:56:33.563Z,1.60
2022-09-12T15:59:01.406Z,3.40
2022-09-12T16:01:29.862Z,1.70
2022-09-12T16:03:58.490Z,1.70
2022-09-12T16:06:33.620Z,2.10
2022-09-12T16:09:03.586Z,2.90
2022-09-12T16:11:33.100Z,1.60
2022-09-12T16:14:01.474Z,3.10
2022-09-12T16:16:29.445Z,2.20
2022-09-12T16:18:58.509Z,1.50
2022-09-12T16:21:26.915Z,2.10
2022-09-12T16:23:54.880Z,2.20
2022-09-12T16:26:23.158Z,1.60
2022-09-12T16:28:59.225Z,1.50
2022-09-12T16:31:29.181Z,2.30
2022-09-12T16:33:57.405Z,1.70
2022-09-12T16:36:25.348Z,2.20
2022-09-12T16:38:54.867Z,2.10
2022-09-12T16:41:27.937Z,2.00
2022-09-12T16:43:56.360Z,1.60
2022-09-12T16:46:31.616Z,2.80
2022-09-12T16:49:00.430Z,2.50
2022-09-12T16:51:33.634Z,1.80
2022-09-12T16:54:04.212Z,2.30
2022-09-12T16:56:32.488Z,1.60
2022-09-12T16:59:00.764Z,1.70
2022-09-12T17:01:29.147Z,1.50
2022-09-12T17:03:58.956Z,1.90
2022-09-12T17:06:28.869Z,2.10
2022-09-12T17:09:02.858Z,1.60
2022-09-12T17:11:38.248Z,1.60
2022-09-12T17:14:08.975Z,1.50
2022-09-12T17:16:49.279Z,1.70
2022-09-12T17:19:28.445Z,2.50
2022-09-12T17:21:58.727Z,1.50
2022-09-12T17:24:26.959Z,1.70
2022-09-12T17:26:57.219Z,2.00
2022-09-12T17:29:25.229Z,1.90
2022-09-12T17:31:55.048Z,1.50
2022-09-12T17:34:23.843Z,2.50
2022-09-12T17:36:52.230Z,2.30
2022-09-12T17:39:20.495Z,2.10
2022-09-12T17:41:51.925Z,3.00
2022-09-12T17:44:20.216Z,2.10
2022-09-12T17:46:49.133Z,1.70
2022-09-12T17:49:22.196Z,1.60
2022-09-12T17:51:51.505Z,2.90
2022-09-12T17:54:20.970Z,1.60
2022-09-12T17:56:50.075Z,2.50
2022-09-12T17:59:23.015Z,1.90
2022-09-12T18:02:10.397Z,1.80
2022-09-12T18:04:40.763Z,2.40
2022-09-12T18:07:09.161Z,2.10
2022-09-12T18:09:37.291Z,2.20
2022-09-12T18:12:06.082Z,1.90
2022-09-12T18:14:35.000Z,1.60
2022-09-12T18:17:04.786Z,2.30
2022-09-12T18:19:33.527Z,2.00
2022-09-12T18:22:02.770Z,3.90
2022-09-12T18:24:30.843Z,2.10
2022-09-12T18:26:59.242Z,2.70
2022-09-12T18:29:28.218Z,3.40
2022-09-12T18:31:56.711Z,3.80
2022-09-12T18:34:24.757Z,3.60
2022-09-12T18:36:55.116Z,3.60
2022-09-12T18:39:27.438Z,3.50
2022-09-12T18:41:57.654Z,4.10
2022-09-12T18:44:25.650Z,4.70
2022-09-12T18:46:54.475Z,3.60
2022-09-12T18:49:23.612Z,5.40
2022-09-12T18:51:52.033Z,3.60
2022-09-12T18:54:20.813Z,6.50
2022-09-12T18:56:48.920Z,7.80
2022-09-12T18:59:17.262Z,4.70
2022-09-12T19:01:46.117Z,6.50
2022-09-12T19:04:16.098Z,6.50
2022-09-12T19:06:48.161Z,5.50
2022-09-12T19:09:21.604Z,7.20
2022-09-12T19:11:50.412Z,4.60
2022-09-12T19:14:23.352Z,5.20
2022-09-12T19:16:52.514Z,6.80
2022-09-12T19:19:22.326Z,6.50
2022-09-12T19:21:50.597Z,5.20
2022-09-12T19:24:19.488Z,5.40
2022-09-12T19:26:50.780Z,7.00
2022-09-12T19:29:19.418Z,6.10
2022-09-12T19:31:50.153Z,7.70
2022-09-12T19:34:18.327Z,6.20
2022-09-12T19:36:47.469Z,5.90
2022-09-12T19:39:19.982Z,7.20
2022-09-12T19:41:48.795Z,8.90
2022-09-12T19:44:19.315Z,11.60
2022-09-12T19:46:48.225Z,7.90
2022-09-12T19:49:16.382Z,8.20
2022-09-12T19:51:44.556Z,8.30
2022-09-12T19:54:12.494Z,9.90
2022-09-12T19:56:40.802Z,8.60
2022-09-12T19:59:08.951Z,9.80
2022-09-12T20:01:37.952Z,9.20
2022-09-12T20:04:07.139Z,10.20
2022-09-12T20:06:35.454Z,9.80
2022-09-12T20:09:04.134Z,9.20
2022-09-12T20:11:32.307Z,12.00
2022-09-12T20:14:00.379Z,10.90
2022-09-12T20:16:30.087Z,8.70
2022-09-12T20:19:08.809Z,11.20
2022-09-12T20:21:37.392Z,11.30
2022-09-12T20:24:14.098Z,12.00
2022-09-12T20:26:43.351Z,10.90
2022-09-12T20:29:11.438Z,10.60
2022-09-12T20:31:42.176Z,8.50
2022-09-12T20:34:20.547Z,10.10
2022-09-12T20:36:49.075Z,8.00
2022-09-12T20:39:22.656Z,8.00
2022-09-12T20:41:52.078Z,9.60
2022-09-12T20:44:20.765Z,10.00
2022-09-12T20:46:49.100Z,8.40
2022-09-12T20:49:17.177Z,7.10
2022-09-12T20:51:45.385Z,9.30
2022-09-12T20:54:13.383Z,8.70
2022-09-12T20:56:42.125Z,7.10
2022-09-12T20:59:12.883Z,6.20
2022-09-12T21:01:41.135Z,7.00
2022-09-12T21:04:14.314Z,6.80
2022-09-12T21:06:43.239Z,8.60
2022-09-12T21:09:11.559Z,8.70
2022-09-12T21:11:39.410Z,8.60
2022-09-12T21:14:07.326Z,8.30
2022-09-12T21:16:38.747Z,8.30
2022-09-12T21:19:07.064Z,7.00
2022-09-12T21:21:35.149Z,7.60
2022-09-12T21:24:03.937Z,7.00
2022-09-12T21:26:32.715Z,6.60
2022-09-12T21:29:00.785Z,6.30
2022-09-12T21:31:28.725Z,6.80
2022-09-12T21:33:57.247Z,6.90
2022-09-12T21:36:25.802Z,6.90
2022-09-12T21:38:53.753Z,7.30
2022-09-12T21:41:21.694Z,8.40
2022-09-12T21:43:49.947Z,7.90
2022-09-12T21:46:18.689Z,9.50
2022-09-12T21:48:46.806Z,6.90
2022-09-12T21:51:14.776Z,6.40
2022-09-12T21:53:43.663Z,8.20
2022-09-12T21:56:11.563Z,6.90
2022-09-12T21:58:40.100Z,6.80
2022-09-12T22:01:11.997Z,7.10
2022-09-12T22:03:43.431Z,6.40
2022-09-12T22:06:12.043Z,7.00
2022-09-12T22:08:40.819Z,5.70
2022-09-12T22:11:10.634Z,7.30
2022-09-12T22:13:43.395Z,9.10
2022-09-12T22:16:12.306Z,6.70
2022-09-12T22:18:40.763Z,6.40
2022-09-12T22:21:18.723Z,6.40
2022-09-12T22:24:05.928Z,7.60
2022-09-12T22:26:42.549Z,6.50
2022-09-12T22:29:13.449Z,5.60
2022-09-12T22:31:42.668Z,6.00
2022-09-12T22:34:11.842Z,5.50
2022-09-12T22:36:40.226Z,6.40
2022-09-12T22:39:09.032Z,6.70
2022-09-12T22:41:37.754Z,7.10
2022-09-12T22:44:06.759Z,6.50
2022-09-12T22:46:34.799Z,7.00
2022-09-12T22:49:04.761Z,6.40
2022-09-12T22:51:33.772Z,6.60
2022-09-12T22:54:02.724Z,6.60
2022-09-12T22:56:30.645Z,7.30
2022-09-12T22:58:58.970Z,6.40
2022-09-12T23:01:27.349Z,5.90
2022-09-12T23:03:55.419Z,6.70
2022-09-12T23:06:23.388Z,6.70
2022-09-12T23:08:51.976Z,7.10
2022-09-12T23:11:21.625Z,7.00
2022-09-12T23:13:51.087Z,6.30
2022-09-12T23:16:26.217Z,6.70
2022-09-12T23:18:54.285Z,5.90
2022-09-12T23:21:22.573Z,6.20
2022-09-12T23:23:50.936Z,7.00
2022-09-12T23:26:24.947Z,6.00
2022-09-12T23:28:58.825Z,5.10
2022-09-12T23:31:31.181Z,6.00
2022-09-12T23:34:03.621Z,7.10
2022-09-12T23:36:32.927Z,6.20
2022-09-12T23:39:01.329Z,6.50
2022-09-12T23:41:29.678Z,6.20
2022-09-12T23:43:58.361Z,6.90
2022-09-12T23:46:26.596Z,5.90
2022-09-12T23:48:54.610Z,6.70
2022-09-12T23:51:22.992Z,6.50
2022-09-12T23:53:51.293Z,5.50
2022-09-12T23:56:19.445Z,7.20
2022-09-12T23:58:48.114Z,5.90
